createdAt,value
2023-03-24T00:01:19.604Z,2.00
2023-03-24T00:03:48.748Z,2.10
2023-03-24T00:06:18.848Z,2.20
2023-03-24T00:08:48.553Z,1.90
2023-03-24T00:11:18.631Z,2.00
2023-03-24T00:13:49.930Z,2.10
2023-03-24T00:16:19.423Z,2.20
2023-03-24T00:18:50.360Z,2.40
2023-03-24T00:21:18.434Z,1.80
2023-03-24T00:23:49.439Z,2.07
2023-03-24T00:26:18.723Z,2.13
2023-03-24T00:28:49.664Z,1.97
2023-03-24T00:31:19.242Z,1.70
2023-03-24T00:33:50.858Z,1.90
2023-03-24T00:36:20.962Z,2.20
2023-03-24T00:38:50.882Z,1.80
2023-03-24T00:41:20.106Z,2.03
2023-03-24T00:43:49.177Z,1.80
2023-03-24T00:46:28.475Z,1.93
2023-03-24T00:49:02.064Z,1.83
2023-03-24T00:51:32.270Z,1.97
2023-03-24T00:54:02.522Z,2.00
2023-03-24T00:56:34.241Z,2.17
2023-03-24T00:59:03.024Z,1.97
2023-03-24T01:01:35.168Z,2.27
2023-03-24T01:04:05.762Z,1.97
2023-03-24T01:06:36.656Z,1.80
2023-03-24T01:09:07.575Z,2.00
2023-03-24T01:11:39.778Z,1.90
2023-03-24T01:14:08.709Z,2.30
2023-03-24T01:16:36.855Z,2.13
2023-03-24T01:19:06.684Z,1.97
2023-03-24T01:21:35.309Z,2.13
2023-03-24T01:24:04.950Z,1.60
2023-03-24T01:26:34.498Z,1.70
2023-03-24T01:29:02.575Z,1.80
2023-03-24T01:31:31.034Z,2.00
2023-03-24T01:33:59.095Z,2.20
2023-03-24T01:36:27.216Z,2.30
2023-03-24T01:38:58.337Z,1.63
2023-03-24T01:41:28.268Z,2.10
2023-03-24T01:43:57.656Z,1.90
2023-03-24T01:46:26.482Z,1.60
2023-03-24T01:48:58.915Z,1.67
2023-03-24T01:51:30.392Z,1.90
2023-03-24T01:54:02.342Z,1.97
2023-03-24T01:56:34.485Z,1.90
2023-03-24T01:59:10.936Z,1.87
2023-03-24T02:02:03.871Z,1.50
2023-03-24T02:04:46.984Z,1.73
2023-03-24T02:07:21.266Z,1.60
2023-03-24T02:09:49.463Z,1.90
2023-03-24T02:12:18.253Z,1.80
2023-03-24T02:14:48.472Z,1.90
2023-03-24T02:17:33.805Z,2.07
2023-03-24T02:20:31.860Z,1.80
2023-03-24T02:23:36.014Z,1.50
2023-03-24T02:26:34.221Z,1.60
2023-03-24T02:29:23.268Z,1.73
2023-03-24T02:32:16.774Z,1.80
2023-03-24T02:35:32.647Z,1.80
2023-03-24T02:38:22.895Z,1.40
2023-03-24T02:40:59.043Z,1.50
2023-03-24T02:43:40.561Z,1.30
2023-03-24T02:46:17.721Z,1.40
2023-03-24T02:49:04.893Z,1.40
2023-03-24T02:51:40.142Z,1.70
2023-03-24T02:54:12.728Z,1.50
2023-03-24T02:56:48.015Z,1.83
2023-03-24T02:59:56.467Z,1.47
2023-03-24T03:03:01.409Z,1.63
2023-03-24T03:05:35.490Z,1.57
2023-03-24T03:08:08.148Z,1.70
2023-03-24T03:10:39.372Z,1.50
2023-03-24T03:13:13.102Z,1.70
2023-03-24T03:15:45.366Z,1.70
2023-03-24T03:18:19.701Z,1.90
2023-03-24T03:20:53.185Z,1.50
2023-03-24T03:23:26.369Z,1.70
2023-03-24T03:26:05.909Z,1.80
2023-03-24T03:28:39.424Z,1.40
2023-03-24T03:31:14.638Z,1.53
2023-03-24T03:33:49.798Z,1.67
2023-03-24T03:36:27.904Z,1.50
2023-03-24T03:39:00.861Z,1.47
2023-03-24T03:41:29.131Z,1.80
2023-03-24T03:43:58.709Z,1.63
2023-03-24T03:46:27.097Z,1.50
2023-03-24T03:48:55.878Z,1.50
2023-03-24T03:51:23.977Z,1.53
2023-03-24T03:53:59.771Z,1.40
2023-03-24T03:56:31.034Z,1.40
2023-03-24T03:59:25.379Z,1.60
2023-03-24T04:01:54.408Z,1.70
2023-03-24T04:05:27.645Z,1.60
2023-03-24T04:08:27.959Z,1.70
2023-03-24T04:11:22.467Z,1.57
2023-03-24T04:14:29.636Z,1.50
2023-03-24T04:17:32.566Z,1.67
2023-03-24T04:20:10.686Z,1.53
2023-03-24T04:22:55.772Z,1.50
2023-03-24T04:25:31.257Z,1.80
2023-03-24T04:28:06.348Z,1.70
2023-03-24T04:30:43.126Z,1.47
2023-03-24T04:33:22.297Z,1.50
2023-03-24T04:35:56.475Z,1.70
2023-03-24T04:38:33.519Z,1.53
2023-03-24T04:41:19.729Z,1.53
2023-03-24T04:43:58.955Z,1.70
2023-03-24T04:46:28.562Z,1.50
2023-03-24T04:49:16.910Z,1.60
2023-03-24T04:51:46.075Z,1.57
2023-03-24T04:54:24.924Z,1.47
2023-03-24T04:57:01.877Z,1.60
2023-03-24T04:59:50.224Z,1.80
2023-03-24T05:02:22.000Z,1.50
2023-03-24T05:05:01.434Z,1.90
2023-03-24T05:07:35.235Z,1.70
2023-03-24T05:10:08.455Z,1.40
2023-03-24T05:12:43.297Z,1.67
2023-03-24T05:15:29.825Z,1.60
2023-03-24T05:18:17.735Z,1.60
2023-03-24T05:20:45.906Z,1.30
2023-03-24T05:23:19.647Z,1.60
2023-03-24T05:25:49.243Z,1.33
2023-03-24T05:28:18.310Z,1.87
2023-03-24T05:30:46.630Z,1.47
2023-03-24T05:33:36.170Z,1.47
2023-03-24T05:36:05.756Z,1.70
2023-03-24T05:38:34.538Z,1.60
2023-03-24T05:41:03.164Z,1.90
2023-03-24T05:43:38.159Z,2.10
2023-03-24T05:46:12.053Z,1.93
2023-03-24T05:48:41.390Z,1.73
2023-03-24T05:51:13.477Z,2.10
2023-03-24T05:53:42.340Z,1.90
2023-03-24T05:56:21.644Z,1.80
2023-03-24T05:59:07.740Z,1.70
2023-03-24T06:01:56.792Z,1.70
2023-03-24T06:04:34.140Z,2.00
2023-03-24T06:07:11.879Z,2.20
2023-03-24T06:09:42.525Z,2.10
2023-03-24T06:12:13.898Z,1.87
2023-03-24T06:14:50.707Z,2.23
2023-03-24T06:17:21.315Z,2.13
2023-03-24T06:19:53.476Z,2.00
2023-03-24T06:22:44.141Z,2.20
2023-03-24T06:25:16.740Z,1.93
2023-03-24T06:27:53.013Z,2.03
2023-03-24T06:30:24.428Z,1.87
2023-03-24T06:32:52.656Z,2.10
2023-03-24T06:35:22.680Z,2.30
2023-03-24T06:38:00.163Z,2.23
2023-03-24T06:40:30.285Z,2.03
2023-03-24T06:42:59.565Z,2.20
2023-03-24T06:45:30.815Z,2.43
2023-03-24T06:47:59.788Z,2.40
2023-03-24T06:50:33.137Z,1.97
2023-03-24T06:53:03.453Z,2.10
2023-03-24T06:55:33.909Z,2.13
2023-03-24T06:58:02.488Z,2.40
2023-03-24T07:00:31.139Z,2.10
2023-03-24T07:03:22.727Z,2.27
2023-03-24T07:06:19.649Z,2.23
2023-03-24T07:08:52.888Z,2.40
2023-03-24T07:11:23.449Z,1.97
2023-03-24T07:13:57.924Z,2.20
2023-03-24T07:16:27.582Z,2.00
2023-03-24T07:19:03.876Z,2.37
2023-03-24T07:21:37.664Z,2.23
2023-03-24T07:24:07.424Z,2.40
2023-03-24T07:26:53.391Z,2.10
2023-03-24T07:29:25.171Z,2.27
2023-03-24T07:32:22.799Z,2.63
2023-03-24T07:34:50.814Z,2.50
2023-03-24T07:37:20.468Z,2.40
2023-03-24T07:39:49.351Z,2.43
2023-03-24T07:42:17.429Z,2.33
2023-03-24T07:45:13.492Z,2.30
2023-03-24T07:47:45.361Z,2.50
2023-03-24T07:50:14.664Z,2.53
2023-03-24T07:52:48.099Z,2.47
2023-03-24T07:55:18.652Z,2.43
2023-03-24T07:57:54.617Z,2.60
2023-03-24T08:00:25.368Z,3.00
2023-03-24T08:03:16.242Z,2.60
2023-03-24T08:06:07.906Z,2.53
2023-03-24T08:08:43.470Z,2.73
2023-03-24T08:11:11.541Z,2.73
2023-03-24T08:13:39.481Z,2.60
2023-03-24T08:16:08.312Z,2.77
2023-03-24T08:18:36.510Z,2.50
2023-03-24T08:21:05.005Z,2.80
2023-03-24T08:23:33.700Z,2.87
2023-03-24T08:26:03.139Z,3.00
2023-03-24T08:28:31.465Z,2.90
2023-03-24T08:30:59.809Z,2.90
2023-03-24T08:33:27.876Z,2.50
2023-03-24T08:35:58.004Z,2.87
2023-03-24T08:38:30.709Z,2.47
2023-03-24T08:41:02.035Z,2.30
2023-03-24T08:43:31.880Z,2.70
2023-03-24T08:46:01.534Z,2.97
2023-03-24T08:48:31.208Z,2.80
2023-03-24T08:50:59.323Z,2.80
2023-03-24T08:53:27.616Z,2.53
2023-03-24T08:55:55.648Z,2.20
2023-03-24T08:58:24.035Z,2.60
2023-03-24T09:00:53.455Z,2.20
2023-03-24T09:03:22.333Z,2.17
2023-03-24T09:05:51.419Z,2.00
2023-03-24T09:08:21.092Z,1.90
2023-03-24T09:10:51.146Z,2.10
2023-03-24T09:13:20.333Z,1.90
2023-03-24T09:15:49.410Z,1.90
2023-03-24T09:18:20.035Z,1.87
2023-03-24T09:20:48.880Z,2.30
2023-03-24T09:23:17.440Z,1.93
2023-03-24T09:25:45.591Z,1.90
2023-03-24T09:28:14.926Z,1.83
2023-03-24T09:30:43.076Z,1.90
2023-03-24T09:33:11.359Z,1.90
2023-03-24T09:35:41.102Z,1.80
2023-03-24T09:38:10.697Z,1.90
2023-03-24T09:40:40.631Z,1.97
2023-03-24T09:43:13.328Z,1.70
2023-03-24T09:45:49.503Z,1.73
2023-03-24T09:48:26.316Z,1.90
2023-03-24T09:51:00.845Z,1.63
2023-03-24T09:53:36.972Z,1.60
2023-03-24T09:56:12.067Z,1.53
2023-03-24T09:58:41.600Z,2.00
2023-03-24T10:01:15.718Z,1.87
2023-03-24T10:03:45.018Z,1.77
2023-03-24T10:06:21.813Z,1.90
2023-03-24T10:09:08.133Z,1.63
2023-03-24T10:11:43.248Z,1.70
2023-03-24T10:14:24.429Z,1.70
2023-03-24T10:16:59.976Z,1.50
2023-03-24T10:19:41.220Z,1.40
2023-03-24T10:22:20.224Z,1.60
2023-03-24T10:24:55.932Z,1.50
2023-03-24T10:27:29.888Z,1.20
2023-03-24T10:30:04.427Z,1.40
2023-03-24T10:32:36.267Z,1.50
2023-03-24T10:35:10.067Z,1.20
2023-03-24T10:37:39.472Z,1.23
2023-03-24T10:40:17.999Z,1.20
2023-03-24T10:42:48.757Z,1.20
2023-03-24T10:45:27.957Z,0.93
2023-03-24T10:47:59.747Z,1.20
2023-03-24T10:50:30.118Z,1.00
2023-03-24T10:52:59.515Z,1.10
2023-03-24T10:55:32.283Z,1.10
2023-03-24T10:58:01.496Z,1.00
2023-03-24T11:00:31.807Z,1.10
2023-03-24T11:03:02.423Z,1.27
2023-03-24T11:05:33.701Z,1.30
2023-03-24T11:08:22.012Z,0.90
2023-03-24T11:10:50.428Z,0.80
2023-03-24T11:13:20.100Z,1.30
2023-03-24T11:15:57.748Z,1.20
2023-03-24T11:18:25.637Z,1.03
2023-03-24T11:20:56.749Z,1.00
2023-03-24T11:23:31.258Z,1.00
2023-03-24T11:26:09.566Z,1.00
2023-03-24T11:28:41.047Z,0.83
2023-03-24T11:31:11.354Z,0.80
2023-03-24T11:33:46.560Z,1.00
2023-03-24T11:36:46.895Z,0.93
2023-03-24T11:39:20.072Z,0.80
2023-03-24T11:42:15.657Z,1.03
2023-03-24T11:44:49.703Z,1.00
2023-03-24T11:47:24.477Z,1.00
2023-03-24T11:50:01.492Z,1.00
2023-03-24T11:52:34.017Z,0.80
2023-03-24T11:55:04.450Z,0.93
2023-03-24T11:57:46.905Z,0.90
2023-03-24T12:00:22.911Z,0.80
2023-03-24T12:03:22.525Z,0.77
2023-03-24T12:05:57.394Z,0.90
2023-03-24T12:08:43.564Z,0.80
2023-03-24T12:11:19.452Z,0.60
2023-03-24T12:13:50.528Z,0.70
2023-03-24T12:16:29.669Z,0.80
2023-03-24T12:19:41.108Z,0.80
2023-03-24T12:22:21.110Z,0.77
2023-03-24T12:25:09.824Z,0.80
2023-03-24T12:27:48.059Z,0.70
2023-03-24T12:30:25.833Z,0.70
2023-03-24T12:33:18.341Z,0.50
2023-03-24T12:35:55.024Z,0.80
2023-03-24T12:38:37.834Z,0.60
2023-03-24T12:41:38.067Z,0.70
2023-03-24T12:44:33.543Z,0.70
2023-03-24T12:47:13.693Z,0.70
2023-03-24T12:49:56.567Z,0.50
2023-03-24T12:52:38.261Z,0.60
2023-03-24T12:55:12.727Z,0.63
2023-03-24T12:57:45.250Z,0.67
2023-03-24T13:00:20.916Z,0.60
2023-03-24T13:02:53.106Z,0.70
2023-03-24T13:05:26.589Z,0.60
2023-03-24T13:07:58.380Z,0.50
2023-03-24T13:10:29.993Z,0.60
2023-03-24T13:13:03.315Z,0.50
2023-03-24T13:15:37.186Z,0.50
2023-03-24T13:18:18.017Z,0.50
2023-03-24T13:20:49.637Z,0.50
2023-03-24T13:23:51.812Z,0.40
2023-03-24T13:26:35.152Z,0.40
2023-03-24T13:29:17.632Z,0.50
2023-03-24T13:31:53.341Z,0.90
2023-03-24T13:34:28.684Z,0.63
2023-03-24T13:37:00.526Z,0.60
2023-03-24T13:39:31.185Z,0.60
2023-03-24T13:42:00.592Z,0.50
2023-03-24T13:44:38.545Z,1.07
2023-03-24T13:47:13.840Z,0.60
2023-03-24T13:49:43.516Z,0.77
2023-03-24T13:52:27.307Z,1.00
2023-03-24T13:54:59.464Z,0.90
2023-03-24T13:57:28.770Z,1.20
2023-03-24T14:00:09.070Z,1.03
2023-03-24T14:02:50.057Z,1.20
2023-03-24T14:05:59.191Z,0.87
2023-03-24T14:08:46.293Z,1.17
2023-03-24T14:11:45.571Z,0.90
2023-03-24T14:14:22.661Z,2.07
2023-03-24T14:16:53.240Z,1.57
2023-03-24T14:19:32.546Z,1.07
2023-03-24T14:22:11.255Z,0.90
2023-03-24T14:24:40.375Z,1.00
2023-03-24T14:27:42.407Z,0.90
2023-03-24T14:30:20.187Z,0.80
2023-03-24T14:32:50.425Z,0.60
2023-03-24T14:35:34.886Z,0.73
2023-03-24T14:38:04.984Z,0.77
2023-03-24T14:40:37.463Z,0.80
2023-03-24T14:43:19.119Z,0.90
2023-03-24T14:46:06.328Z,1.03
2023-03-24T14:48:39.357Z,0.93
2023-03-24T14:51:37.315Z,0.70
2023-03-24T14:54:08.330Z,0.60
2023-03-24T14:56:40.438Z,1.07
2023-03-24T14:59:17.831Z,0.70
2023-03-24T15:01:48.796Z,1.00
2023-03-24T15:04:16.920Z,0.90
2023-03-24T15:06:47.576Z,0.70
2023-03-24T15:09:18.003Z,1.00
2023-03-24T15:11:47.731Z,0.63
2023-03-24T15:14:22.560Z,0.60
2023-03-24T15:16:59.536Z,0.60
2023-03-24T15:19:30.662Z,0.93
2023-03-24T15:22:02.752Z,0.80
2023-03-24T15:24:33.447Z,0.73
2023-03-24T15:27:23.405Z,0.73
2023-03-24T15:29:57.530Z,0.60
2023-03-24T15:32:27.530Z,0.80
2023-03-24T15:34:57.123Z,0.70
2023-03-24T15:37:33.499Z,0.80
2023-03-24T15:40:12.961Z,0.80
2023-03-24T15:42:45.901Z,0.70
2023-03-24T15:45:29.809Z,0.90
2023-03-24T15:48:06.863Z,0.77
2023-03-24T15:50:37.237Z,0.70
2023-03-24T15:53:22.107Z,0.87
2023-03-24T15:56:04.696Z,0.70
2023-03-24T15:58:47.660Z,0.77
2023-03-24T16:01:19.137Z,0.73
2023-03-24T16:03:49.066Z,0.80
2023-03-24T16:06:26.446Z,0.70
2023-03-24T16:08:58.856Z,0.80
2023-03-24T16:11:30.121Z,0.80
2023-03-24T16:13:59.414Z,0.83
2023-03-24T16:16:29.437Z,0.60
2023-03-24T16:18:59.233Z,0.50
2023-03-24T16:21:29.192Z,0.80
2023-03-24T16:23:59.531Z,0.60
2023-03-24T16:26:29.692Z,0.60
2023-03-24T16:29:04.145Z,0.50
2023-03-24T16:31:35.449Z,0.63
2023-03-24T16:34:03.394Z,0.60
2023-03-24T16:36:31.503Z,1.00
2023-03-24T16:39:01.756Z,0.80
2023-03-24T16:41:30.154Z,0.87
2023-03-24T16:43:58.483Z,0.70
2023-03-24T16:46:32.832Z,0.70
2023-03-24T16:49:01.430Z,0.67
2023-03-24T16:51:29.739Z,0.80
2023-03-24T16:53:57.957Z,0.83
2023-03-24T16:56:27.513Z,0.83
2023-03-24T16:58:56.314Z,0.90
2023-03-24T17:01:33.369Z,0.90
2023-03-24T17:04:03.118Z,0.83
2023-03-24T17:06:32.944Z,1.00
2023-03-24T17:09:01.310Z,0.90
2023-03-24T17:11:33.117Z,0.83
2023-03-24T17:14:04.758Z,0.90
2023-03-24T17:16:33.299Z,1.07
2023-03-24T17:19:01.207Z,0.90
2023-03-24T17:21:29.190Z,1.13
2023-03-24T17:23:57.081Z,1.10
2023-03-24T17:26:25.497Z,1.17
2023-03-24T17:28:55.233Z,1.00
2023-03-24T17:31:23.193Z,1.37
2023-03-24T17:33:51.194Z,1.10
2023-03-24T17:36:19.160Z,0.90
2023-03-24T17:38:48.668Z,1.20
2023-03-24T17:41:16.656Z,1.20
2023-03-24T17:43:47.219Z,1.23
2023-03-24T17:46:16.541Z,1.40
2023-03-24T17:48:46.210Z,1.37
2023-03-24T17:51:15.526Z,1.30
2023-03-24T17:53:45.071Z,1.40
2023-03-24T17:56:13.160Z,1.30
2023-03-24T17:58:41.681Z,1.20
2023-03-24T18:01:10.715Z,1.50
2023-03-24T18:03:39.986Z,1.27
2023-03-24T18:06:09.336Z,1.30
2023-03-24T18:08:39.362Z,1.27
2023-03-24T18:11:08.273Z,1.20
2023-03-24T18:13:36.907Z,1.27
2023-03-24T18:16:20.039Z,1.50
2023-03-24T18:18:51.634Z,1.40
2023-03-24T18:21:21.132Z,1.40
2023-03-24T18:23:49.377Z,1.27
2023-03-24T18:26:18.801Z,1.50
2023-03-24T18:28:47.747Z,1.50
2023-03-24T18:31:18.838Z,1.53
2023-03-24T18:33:47.966Z,1.10
2023-03-24T18:36:21.053Z,1.40
2023-03-24T18:38:49.604Z,1.20
2023-03-24T18:41:18.429Z,1.30
2023-03-24T18:43:48.276Z,1.70
2023-03-24T18:46:17.042Z,1.70
2023-03-24T18:48:46.585Z,1.40
2023-03-24T18:51:15.316Z,1.27
2023-03-24T18:53:44.792Z,1.40
2023-03-24T18:56:13.232Z,1.33
2023-03-24T18:58:43.256Z,1.60
2023-03-24T19:01:13.576Z,1.37
2023-03-24T19:03:44.053Z,1.53
2023-03-24T19:06:14.235Z,1.37
2023-03-24T19:08:45.812Z,1.50
2023-03-24T19:11:15.777Z,1.53
2023-03-24T19:13:46.229Z,1.43
2023-03-24T19:16:14.597Z,1.30
2023-03-24T19:18:42.506Z,1.80
2023-03-24T19:21:14.656Z,1.60
2023-03-24T19:23:43.960Z,1.37
2023-03-24T19:26:11.914Z,1.40
2023-03-24T19:28:39.887Z,1.40
2023-03-24T19:31:09.960Z,1.37
2023-03-24T19:33:38.361Z,1.50
2023-03-24T19:36:08.802Z,1.50
2023-03-24T19:38:38.259Z,1.50
2023-03-24T19:41:09.645Z,1.50
2023-03-24T19:43:37.684Z,1.23
2023-03-24T19:46:06.573Z,1.60
2023-03-24T19:48:34.792Z,1.37
2023-03-24T19:51:03.403Z,1.60
2023-03-24T19:53:31.513Z,1.73
2023-03-24T19:56:01.203Z,1.30
2023-03-24T19:58:31.063Z,1.30
2023-03-24T20:00:59.045Z,1.30
2023-03-24T20:03:28.825Z,1.30
2023-03-24T20:05:56.930Z,1.30
2023-03-24T20:08:26.077Z,1.30
2023-03-24T20:10:54.135Z,1.30
2023-03-24T20:13:24.044Z,1.17
2023-03-24T20:15:53.687Z,1.40
2023-03-24T20:18:21.849Z,1.40
2023-03-24T20:20:49.879Z,1.43
2023-03-24T20:23:17.995Z,1.20
2023-03-24T20:25:45.953Z,1.40
2023-03-24T20:28:14.001Z,1.23
2023-03-24T20:30:44.989Z,1.20
2023-03-24T20:33:14.651Z,1.50
2023-03-24T20:35:42.710Z,1.47
2023-03-24T20:38:10.617Z,1.40
2023-03-24T20:40:38.502Z,1.70
2023-03-24T20:43:06.380Z,1.50
2023-03-24T20:45:34.428Z,1.43
2023-03-24T20:48:02.546Z,1.53
2023-03-24T20:50:31.884Z,1.40
2023-03-24T20:52:59.853Z,1.40
2023-03-24T20:55:27.951Z,1.70
2023-03-24T20:57:56.537Z,1.63
2023-03-24T21:00:24.559Z,1.50
2023-03-24T21:02:53.160Z,1.70
2023-03-24T21:05:21.449Z,1.30
2023-03-24T21:07:51.442Z,1.30
2023-03-24T21:10:19.629Z,1.50
2023-03-24T21:12:52.356Z,1.27
2023-03-24T21:15:23.251Z,1.43
2023-03-24T21:17:51.762Z,1.60
2023-03-24T21:20:20.853Z,1.40
2023-03-24T21:22:53.232Z,1.43
2023-03-24T21:25:23.576Z,1.50
2023-03-24T21:27:51.662Z,1.40
2023-03-24T21:30:20.805Z,1.27
2023-03-24T21:32:49.739Z,1.60
2023-03-24T21:35:19.678Z,1.20
2023-03-24T21:37:48.098Z,1.50
2023-03-24T21:40:18.651Z,1.40
2023-03-24T21:42:49.749Z,1.27
2023-03-24T21:45:19.386Z,1.30
2023-03-24T21:47:49.273Z,1.50
2023-03-24T21:50:22.757Z,1.50
2023-03-24T21:52:51.403Z,1.30
2023-03-24T21:55:20.799Z,1.93
2023-03-24T21:57:51.716Z,1.50
2023-03-24T22:00:23.781Z,1.20
2023-03-24T22:02:53.494Z,1.50
2023-03-24T22:05:23.494Z,1.43
2023-03-24T22:07:52.641Z,1.50
2023-03-24T22:10:22.714Z,1.50
2023-03-24T22:12:53.244Z,1.30
2023-03-24T22:15:21.950Z,1.43
2023-03-24T22:17:49.930Z,1.40
2023-03-24T22:20:18.424Z,1.30
2023-03-24T22:22:46.583Z,1.47
2023-03-24T22:25:17.624Z,1.50
2023-03-24T22:27:46.010Z,1.40
2023-03-24T22:30:15.896Z,1.50
2023-03-24T22:32:43.959Z,1.20
2023-03-24T22:35:12.149Z,1.20
2023-03-24T22:37:40.087Z,1.60
2023-03-24T22:40:09.772Z,1.23
2023-03-24T22:42:37.917Z,1.60
2023-03-24T22:45:07.404Z,1.30
2023-03-24T22:47:36.787Z,1.57
2023-03-24T22:50:05.948Z,1.40
2023-03-24T22:52:35.736Z,1.13
2023-03-24T22:55:03.680Z,1.40
2023-03-24T22:57:31.729Z,1.60
2023-03-24T23:00:01.946Z,1.33
2023-03-24T23:02:30.682Z,1.10
2023-03-24T23:05:00.257Z,1.80
2023-03-24T23:07:28.745Z,1.70
2023-03-24T23:09:59.461Z,1.43
2023-03-24T23:12:27.672Z,1.43
2023-03-24T23:14:56.045Z,2.40
2023-03-24T23:17:25.099Z,1.23
2023-03-24T23:19:53.418Z,1.50
2023-03-24T23:22:23.051Z,1.10
2023-03-24T23:25:00.287Z,1.40
2023-03-24T23:27:35.017Z,1.17
2023-03-24T23:30:03.251Z,1.00
2023-03-24T23:32:36.714Z,0.80
2023-03-24T23:35:06.176Z,0.80
2023-03-24T23:37:36.515Z,0.73
2023-03-24T23:40:10.030Z,0.70
2023-03-24T23:42:38.306Z,0.63
2023-03-24T23:45:09.700Z,0.70
2023-03-24T23:47:38.008Z,0.70
2023-03-24T23:50:08.263Z,0.90
2023-03-24T23:52:37.634Z,0.70
2023-03-24T23:55:06.124Z,0.60
2023-03-24T23:57:34.077Z,0.70
